Latest Weather Observations for Noonamah

IDD60901

Issued at 10:01 am CST Wednesday 10 February 2016 (issued every 10 minutes, with the page automatically refreshed every 10 minutes)

About weather observations | Map of Darwin area stations | Latest observations for Darwin area | Other Formats
Station Details ID: 014314 Name: NOONAMAH AIRSTRIP Lat: -12.61 Lon: 131.05 Height: 17.5 m
Data from the previous 72 hours. | See also: Recent months at Noonamah
Date/Time
CST
Tmp

°C
App
Tmp
°C
Dew
Point
°C
Rel
Hum
%
Delta-T

°C
Wind Press
QNH
hPa
Press
MSL
hPa
Rain
since
9 am
mm
Dir
 
Spd
km/h
Gust
km/h
Spd
kts
Gust
kts
10/10:00am 30.6 35.3 26.1 77 3.2 WNW 13 20 7 11 1007.7 1007.5 0.0
10/09:30am 30.5 36.7 26.7 80 2.7 W 7 17 4 9 1007.9 1007.7 0.0
10/09:00am 29.4 36.3 26.8 86 1.9 W 4 7 2 4 1007.9 1007.7 19.2
10/08:30am 28.1 34.6 25.7 87 1.7 NW 2 4 1 2 1007.8 1007.6 19.2
10/08:00am 27.3 34.2 25.7 91 1.1 CALM 0 0 0 0 1007.5 1007.3 19.2
10/07:30am 25.8 32.3 25.1 96 0.5 CALM 0 0 0 0 1007.3 1007.1 19.2
10/07:00am 25.3 31.6 24.8 97 0.3 CALM 0 0 0 0 1006.9 1006.7 19.2
10/06:30am 25.4 31.8 24.9 97 0.3 CALM 0 0 0 0 1006.4 1006.2 19.2
10/06:00am 25.4 31.7 24.7 96 0.5 CALM 0 0 0 0 1006.1 1005.9 19.2
10/05:30am 25.5 31.8 24.8 96 0.5 CALM 0 0 0 0 1005.8 1005.6 19.2
10/05:00am 25.6 32.0 24.9 96 0.5 CALM 0 0 0 0 1005.6 1005.4 19.2
10/04:30am 25.7 32.2 25.0 96 0.5 CALM 0 0 0 0 1005.5 1005.3 19.2
10/04:00am 25.7 32.2 25.0 96 0.5 CALM 0 0 0 0 1005.4 1005.2 19.2
10/03:30am 25.7 32.0 24.8 95 0.6 CALM 0 0 0 0 1005.7 1005.5 19.2
10/03:00am 25.7 31.3 24.8 95 0.6 SE 4 6 2 3 1005.9 1005.7 19.2
10/02:30am 25.8 31.1 24.9 95 0.6 ESE 6 9 3 5 1006.4 1006.2 19.2
10/02:00am 25.9 32.0 25.0 95 0.6 SE 2 6 1 3 1006.7 1006.5 19.2
10/01:30am 26.0 31.2 25.1 95 0.6 SE 7 9 4 5 1007.1 1006.9 19.2
10/01:00am 26.2 32.5 25.3 95 0.6 S 2 6 1 3 1007.2 1007.0 19.2
10/12:30am 26.1 32.7 25.2 95 0.6 CALM 0 0 0 0 1007.6 1007.4 19.2
10/12:00am 26.0 32.5 25.0 94 0.7 CALM 0 0 0 0 1007.9 1007.7 19.2
 
Date/Time
CST
Tmp

°C
App
Tmp
°C
Dew
Point
°C
Rel
Hum
%
Delta-T

°C
Wind Press
QNH
hPa
Press
MSL
hPa
Rain
since
9 am
mm
Dir
 
Spd
km/h
Gust
km/h
Spd
kts
Gust
kts
09/11:30pm 26.0 32.5 25.0 94 0.7 CALM 0 2 0 1 1008.1 1007.9 19.2
09/11:00pm 26.0 32.5 25.0 94 0.7 CALM 0 0 0 0 1008.0 1007.8 19.2
09/10:30pm 25.8 31.6 24.6 93 0.8 NNW 2 6 1 3 1007.8 1007.6 19.2
09/10:00pm 25.7 31.0 24.3 92 1.0 NW 4 6 2 3 1007.9 1007.7 19.2
09/09:30pm 25.7 31.0 24.3 92 1.0 WNW 4 6 2 3 1008.0 1007.8 19.2
09/09:00pm 25.7 31.0 24.3 92 1.0 NW 4 6 2 3 1008.1 1007.9 19.2
09/08:30pm 25.7 30.2 23.9 90 1.2 WNW 7 11 4 6 1007.4 1007.2 19.2
09/08:00pm 25.8 30.5 24.0 90 1.2 S 6 9 3 5 1007.5 1007.3 19.2
09/07:30pm 26.0 30.5 23.9 88 1.4 WSW 7 11 4 6 1006.7 1006.5 19.2
09/07:00pm 25.7 30.2 23.9 90 1.2 WSW 7 9 4 5 1006.4 1006.2 19.2
09/06:30pm 25.4 29.5 24.0 92 1.0 WSW 9 13 5 7 1006.7 1006.5 19.2
09/06:00pm 25.5 29.9 24.5 94 0.7 WSW 9 15 5 8 1006.9 1006.7 19.0
09/05:30pm 25.5 31.3 24.6 95 0.6 N 2 4 1 2 1007.0 1006.8 19.0
09/05:00pm 24.9 29.7 24.2 96 0.5 NNW 6 7 3 4 1006.6 1006.4 18.8
09/04:30pm 24.2 27.8 23.0 93 0.8 WNW 9 13 5 7 1006.2 1006.0 16.2
09/04:00pm 25.3 28.1 23.0 87 1.6 W 13 24 7 13 1006.3 1006.1 10.2
09/03:56pm 25.4 27.8 22.9 86 1.7 WSW 15 26 8 14 1006.0 1005.8 10.2
09/03:30pm 30.4 35.5 26.1 78 3.1 WNW 11 22 6 12 1005.5 1005.3 10.2
09/03:00pm 28.5 33.2 25.5 84 2.1 NNW 11 15 6 8 1005.2 1005.0 9.8
09/02:30pm 31.0 32.1 18.0 45 8.4 WNW 9 17 5 9 1005.8 1005.6 1.2
09/02:00pm 33.4 35.5 20.2 46 8.8 WNW 9 15 5 8 1006.2 1006.0 0.0
09/01:30pm 34.2 36.6 20.9 45 9.0 WNW 9 17 5 9 1006.8 1006.6 0.0
09/01:00pm 34.2 37.0 20.9 45 9.0 W 7 15 4 8 1007.1 1006.9 0.0
09/12:30pm 33.8 36.7 20.6 46 8.9 WNW 6 13 3 7 1007.7 1007.5 0.0
09/12:00pm 33.5 36.2 20.3 46 8.8 WSW 6 15 3 8 1008.0 1007.8 0.0
09/11:30am 32.5 34.2 19.4 46 8.6 W 9 15 5 8 1008.3 1008.1 0.0
09/11:00am 32.1 34.0 19.0 45 8.6 W 7 13 4 7 1008.6 1008.4 0.0
09/10:30am 31.8 33.2 18.7 45 8.5 W 9 13 5 7 1008.9 1008.7 0.0
09/10:00am 31.1 32.6 18.1 46 8.4 WNW 7 13 4 7 1009.1 1008.9 0.0
09/09:30am 30.8 32.4 17.8 45 8.3 W 6 15 3 8 1009.3 1009.1 0.0
09/09:00am 29.7 30.9 16.8 45 8.1 WSW 6 9 3 5 1009.1 1008.9 9.2
09/08:30am 28.9 30.6 16.1 46 7.9 NW 2 7 1 4 1008.9 1008.7 9.2
09/08:00am 27.5 29.1 14.8 45 7.7 CALM 0 0 0 0 1008.6 1008.4 9.2
09/07:30am 26.4 27.6 13.9 46 7.4 CALM 0 0 0 0 1008.3 1008.1 9.2
09/07:00am 25.6 26.6 13.1 46 7.3 CALM 0 0 0 0 1007.9 1007.7 9.2
09/06:30am 25.2 26.1 12.8 46 7.2 CALM 0 0 0 0 1007.5 1007.3 9.2
09/06:00am 25.2 26.1 12.8 46 7.2 CALM 0 0 0 0 1007.2 1007.0 9.2
09/05:30am 25.4 26.3 12.9 45 7.3 CALM 0 0 0 0 1007.1 1006.9 9.2
09/05:00am 25.4 26.3 12.9 45 7.3 CALM 0 0 0 0 1006.8 1006.6 9.2
09/04:30am 25.4 26.3 12.9 45 7.3 CALM 0 2 0 1 1006.7 1006.5 9.2
09/04:00am 25.2 26.1 12.8 46 7.2 CALM 0 0 0 0 1006.5 1006.3 9.2
09/03:30am 24.9 25.7 12.5 46 7.2 CALM 0 6 0 3 1006.4 1006.2 9.2
09/03:00am 25.2 26.1 12.8 46 7.2 CALM 0 0 0 0 1006.8 1006.6 9.2
09/02:30am 25.2 26.1 12.8 46 7.2 CALM 0 0 0 0 1007.0 1006.8 9.2
09/02:00am 25.3 25.8 12.9 46 7.2 SSW 2 4 1 2 1007.2 1007.0 9.2
09/01:30am 25.3 26.2 12.9 46 7.2 CALM 0 0 0 0 1007.4 1007.2 9.2
09/01:00am 25.3 26.2 12.9 46 7.2 CALM 0 0 0 0 1007.7 1007.5 9.2
09/12:30am 25.4 26.3 12.9 45 7.3 CALM 0 0 0 0 1008.0 1007.8 9.2
09/12:00am 25.6 26.6 13.1 46 7.3 CALM 0 0 0 0 1008.0 1007.8 9.2
 
Date/Time
CST
Tmp

°C
App
Tmp
°C
Dew
Point
°C
Rel
Hum
%
Delta-T

°C
Wind Press
QNH
hPa
Press
MSL
hPa
Rain
since
9 am
mm
Dir
 
Spd
km/h
Gust
km/h
Spd
kts
Gust
kts
08/11:30pm 25.7 26.7 13.2 46 7.3 CALM 0 0 0 0 1008.2 1008.0 9.2
08/11:00pm 25.7 26.7 13.2 46 7.3 CALM 0 2 0 1 1008.3 1008.1 9.2
08/10:30pm 25.5 26.4 13.0 46 7.3 CALM 0 0 0 0 1008.3 1008.1 9.2
08/10:00pm 25.9 27.0 13.4 46 7.3 CALM 0 0 0 0 1008.1 1007.9 9.2
08/09:30pm 26.0 27.1 13.5 46 7.4 CALM 0 0 0 0 1008.0 1007.8 9.2
08/09:00pm 25.9 25.6 13.4 46 7.3 W 7 9 4 5 1007.7 1007.5 9.2
08/08:30pm 26.3 26.7 13.8 46 7.4 W 4 4 2 2 1007.7 1007.5 9.2
08/08:00pm 26.7 26.9 14.1 46 7.5 E 6 9 3 5 1007.6 1007.4 9.2
08/07:30pm 26.9 28.3 14.3 46 7.6 CALM 0 0 0 0 1007.2 1007.0 9.2
08/07:00pm 27.1 28.2 14.5 46 7.6 NW 2 2 1 1 1006.8 1006.6 9.2
08/06:30pm 27.3 28.8 14.7 46 7.6 CALM 0 0 0 0 1006.7 1006.5 9.2
08/06:00pm 27.3 28.1 14.7 46 7.6 WSW 4 7 2 4 1006.3 1006.1 9.2
08/05:30pm 27.6 28.4 14.9 45 7.7 WNW 4 6 2 3 1006.4 1006.2 9.2
08/05:00pm 26.9 27.1 14.3 46 7.5 W 6 9 3 5 1006.0 1005.8 9.2
08/04:30pm 25.8 26.5 13.3 46 7.3 W 2 4 1 2 1006.1 1005.9 9.2
08/04:00pm 25.1 25.6 12.7 46 7.2 WNW 2 4 1 2 1005.9 1005.7 9.2
08/03:30pm 24.8 24.4 12.4 46 7.1 NNW 6 13 3 7 1005.8 1005.6 9.2
08/03:00pm 24.9 22.1 12.5 46 7.2 NW 19 30 10 16 1006.6 1006.4 8.8
08/02:30pm 26.2 22.8 13.7 46 7.4 NNE 24 37 13 20 1006.6 1006.4 7.4
08/02:23pm 28.1 27.0 15.4 46 7.8 NNE 15 30 8 16 1006.8 1006.6 1.0
08/02:00pm 33.6 36.2 20.4 46 8.8 W 7 11 4 6 1006.4 1006.2 0.0
08/01:30pm 34.7 38.4 21.4 46 9.0 W 4 7 2 4 1006.7 1006.5 0.0
08/01:00pm 33.8 37.4 20.6 46 8.8 N 2 6 1 3 1007.2 1007.0 0.0
08/12:30pm 33.7 36.5 20.5 46 8.8 SW 6 9 3 5 1007.9 1007.7 0.0
08/12:00pm 33.4 36.5 20.2 46 8.8 SW 4 6 2 3 1008.3 1008.1 0.0
08/11:30am 32.8 35.6 19.7 46 8.7 SSW 4 9 2 5 1008.6 1008.4 0.0
08/11:00am 32.9 35.7 19.7 45 8.7 WNW 4 9 2 5 1008.8 1008.6 0.0
08/10:30am 31.7 34.1 18.7 46 8.5 W 4 6 2 3 1008.9 1008.7 0.0
08/10:00am 31.0 33.1 18.0 45 8.3 W 4 9 2 5 1008.9 1008.7 0.0
08/09:30am 30.4 31.9 17.5 46 8.2 WNW 6 7 3 4 1009.1 1008.9 0.0
08/09:00am 30.2 32.7 17.3 46 8.2 CALM 0 2 0 1 1009.0 1008.8 0.0
08/08:30am 29.6 31.5 16.8 46 8.0 E 2 4 1 2 1008.9 1008.7 0.0
08/08:00am 28.2 30.0 15.5 46 7.8 CALM 0 0 0 0 1008.6 1008.4 0.0
08/07:30am 27.2 28.7 14.6 46 7.6 CALM 0 0 0 0 1008.2 1008.0 0.0
08/07:00am 26.0 26.7 13.5 46 7.3 NNE 2 7 1 4 1007.9 1007.7 0.0
08/06:30am 26.2 27.4 13.7 46 7.4 CALM 0 0 0 0 1007.9 1007.7 0.0
08/06:00am 26.3 27.5 13.8 46 7.4 CALM 0 0 0 0 1007.6 1007.4 0.0
08/05:30am 26.5 27.7 13.9 45 7.5 CALM 0 0 0 0 1007.7 1007.5 0.0
08/05:00am 26.5 27.7 13.9 45 7.5 CALM 0 0 0 0 1007.6 1007.4 0.0
08/04:30am 26.6 27.9 14.0 46 7.5 CALM 0 0 0 0 1007.6 1007.4 0.0
08/04:00am 26.6 27.9 14.0 46 7.5 CALM 0 0 0 0 1007.5 1007.3 0.0
08/03:30am 26.6 27.9 14.0 46 7.5 CALM 0 0 0 0 1007.6 1007.4 0.0
08/03:00am 26.6 27.9 14.0 46 7.5 CALM 0 0 0 0 1007.6 1007.4 0.0
08/02:30am 26.6 27.9 14.0 46 7.5 CALM 0 0 0 0 1007.6 1007.4 0.0
08/02:00am 26.6 27.9 14.0 46 7.5 CALM 0 0 0 0 1007.8 1007.6 0.0
08/01:30am 26.5 27.7 13.9 45 7.5 CALM 0 0 0 0 1008.1 1007.9 0.0
08/01:00am 26.6 27.9 14.0 46 7.5 CALM 0 0 0 0 1008.3 1008.1 0.0
08/12:30am 26.5 27.7 13.9 45 7.5 CALM 0 0 0 0 1008.4 1008.2 0.0
08/12:00am 26.5 27.7 13.9 45 7.5 CALM 0 0 0 0 1008.8 1008.6 0.0
 
Date/Time
CST
Tmp

°C
App
Tmp
°C
Dew
Point
°C
Rel
Hum
%
Delta-T

°C
Wind Press
QNH
hPa
Press
MSL
hPa
Rain
since
9 am
mm
Dir
 
Spd
km/h
Gust
km/h
Spd
kts
Gust
kts
07/11:30pm 26.6 27.9 14.0 46 7.5 CALM 0 2 0 1 1009.0 1008.8 0.0
07/11:00pm 26.6 26.7 14.0 46 7.5 ENE 6 7 3 4 1009.1 1008.9 0.0
07/10:30pm 26.8 26.8 14.2 46 7.5 ESE 7 11 4 6 1009.1 1008.9 0.0
07/10:00pm 27.1 28.2 14.5 46 7.6 S 2 4 1 2 1008.8 1008.6 0.0
07/09:30pm 27.3 28.1 14.7 46 7.6 S 4 6 2 3 1008.6 1008.4 0.0
07/09:00pm 27.3 28.8 14.7 46 7.6 CALM 0 0 0 0 1008.2 1008.0 0.0
07/08:30pm 27.3 28.8 14.7 46 7.6 CALM 0 0 0 0 1007.7 1007.5 0.0
07/08:00pm 27.3 28.1 14.7 46 7.6 NW 4 6 2 3 1007.2 1007.0 0.0
07/07:30pm 27.6 28.4 14.9 45 7.7 W 4 6 2 3 1007.4 1007.2 0.0
07/07:00pm 27.8 28.7 15.1 46 7.7 WNW 4 4 2 2 1007.2 1007.0 0.0
07/06:30pm 27.9 29.2 15.2 46 7.8 NW 2 6 1 3 1006.6 1006.4 0.0
07/06:00pm 27.8 28.3 15.1 46 7.7 W 6 9 3 5 1006.1 1005.9 0.0
07/05:30pm 27.8 28.3 15.1 46 7.7 WSW 6 9 3 5 1006.0 1005.8 0.0
07/05:00pm 28.0 28.4 15.3 46 7.7 SSW 7 13 4 7 1006.0 1005.8 0.0
07/04:30pm 30.5 32.8 17.6 46 8.2 NW 2 4 1 2 1005.9 1005.7 0.0
07/04:00pm 30.3 32.1 17.4 46 8.2 N 4 6 2 3 1005.8 1005.6 0.0
07/03:30pm 29.6 30.6 16.8 46 8.1 N 7 11 4 6 1005.8 1005.6 0.0
07/03:00pm 29.0 29.4 16.2 46 8.0 N 9 20 5 11 1005.2 1005.0 0.0
07/02:30pm 30.2 29.9 17.3 46 8.2 NE 15 20 8 11 1005.4 1005.2 0.0
07/02:00pm 32.8 33.9 19.7 46 8.7 N 13 17 7 9 1006.2 1006.0 0.0
07/01:30pm 31.2 32.0 18.2 46 8.4 NNW 11 19 6 10 1006.4 1006.2 0.0
07/01:00pm 31.6 32.6 18.6 46 8.4 NW 11 19 6 10 1006.7 1006.5 0.0
07/12:30pm 33.0 35.5 19.8 45 8.8 WNW 6 11 3 6 1007.0 1006.8 0.0
07/12:00pm 32.5 34.6 19.4 46 8.6 W 7 15 4 8 1007.5 1007.3 0.0
07/11:30am 32.0 33.9 18.9 45 8.6 WNW 7 13 4 7 1008.0 1007.8 0.0
07/11:00am 32.2 34.7 19.1 45 8.6 W 4 6 2 3 1008.0 1007.8 0.0
07/10:30am 31.6 33.5 18.6 46 8.4 W 6 9 3 5 1008.3 1008.1 0.0

Latest Capital City Observations: Canberra | Sydney | Melbourne | Brisbane | Adelaide | Perth | Hobart | Darwin

Other Formats:

Comma delimited format used in spreadsheet applications
http://www.bom.gov.au/fwo/IDD60901/IDD60901.94105.axf

JavaScript Object Notation format (JSON) in row-major order
http://www.bom.gov.au/fwo/IDD60901/IDD60901.94105.json